Time,TemperatureF,DewpointF,PressureIn,WindDirection,WindDirectionDegrees,WindSpeedMPH,WindSpeedGustMPH,Humidity,HourlyPrecipIn,Conditions,Clouds,dailyrainin,SoftwareType,DateUTC
2013-04-22 00:14:00,44.1,34.0,30.32,South,185,7.0,9.0,68,0.00,,,0.00,weatherlink.com 1.10,2013-04-22 05:14:00,
2013-04-22 00:28:00,44.1,34.0,30.32,South,188,6.0,8.0,68,0.00,,,0.00,weatherlink.com 1.10,2013-04-22 05:28:00,
2013-04-22 00:43:00,44.2,34.0,30.32,South,186,2.0,10.0,67,0.00,,,0.00,weatherlink.com 1.10,2013-04-22 05:43:00,
2013-04-22 00:57:00,44.0,34.0,30.32,WSW,245,4.0,9.0,67,0.00,,,0.00,weatherlink.com 1.10,2013-04-22 05:57:00,
2013-04-22 01:11:00,43.9,34.0,30.31,SW,227,1.0,7.0,67,0.00,,,0.00,weatherlink.com 1.10,2013-04-22 06:11:00,
2013-04-22 01:26:00,43.6,33.0,30.31,SW,219,2.0,9.0,67,0.00,,,0.00,weatherlink.com 1.10,2013-04-22 06:26:00,
2013-04-22 01:40:00,43.4,34.0,30.30,SSW,204,5.0,8.0,68,0.00,,,0.00,weatherlink.com 1.10,2013-04-22 06:40:00,
2013-04-22 01:55:00,43.1,33.0,30.30,NE,56,1.0,7.0,68,0.00,,,0.00,weatherlink.com 1.10,2013-04-22 06:55:00,
2013-04-22 02:09:00,43.2,34.0,30.30,SSW,204,4.0,10.0,69,0.00,,,0.00,weatherlink.com 1.10,2013-04-22 07:09:00,
2013-04-22 02:24:00,42.6,33.0,30.30,SSW,192,4.0,9.0,70,0.00,,,0.00,weatherlink.com 1.10,2013-04-22 07:24:00,
2013-04-22 02:38:00,42.2,33.0,30.30,WSW,238,2.0,6.0,71,0.00,,,0.00,weatherlink.com 1.10,2013-04-22 07:38:00,
2013-04-22 02:52:00,41.5,33.0,30.30,SSW,192,4.0,5.0,73,0.00,,,0.00,weatherlink.com 1.10,2013-04-22 07:52:00,
2013-04-22 03:07:00,41.2,34.0,30.30,SSW,205,0.0,4.0,74,0.00,,,0.00,weatherlink.com 1.10,2013-04-22 08:07:00,
2013-04-22 03:21:00,41.2,34.0,30.29,South,188,2.0,5.0,74,0.00,,,0.00,weatherlink.com 1.10,2013-04-22 08:21:00,
2013-04-22 03:36:00,40.8,33.0,30.29,South,188,0.0,2.0,75,0.00,,,0.00,weatherlink.com 1.10,2013-04-22 08:36:00,
2013-04-22 03:50:00,40.6,33.0,30.29,SSE,156,1.0,4.0,75,0.00,,,0.00,weatherlink.com 1.10,2013-04-22 08:50:00,
2013-04-22 04:05:00,40.0,33.0,30.28,ESE,106,1.0,3.0,76,0.00,,,0.00,weatherlink.com 1.10,2013-04-22 09:05:00,
2013-04-22 04:19:00,39.9,33.0,30.29,SW,224,0.0,4.0,77,0.00,,,0.00,weatherlink.com 1.10,2013-04-22 09:19:00,
2013-04-22 04:34:00,39.9,33.0,30.28,SSW,202,1.0,4.0,77,0.00,,,0.00,weatherlink.com 1.10,2013-04-22 09:34:00,
2013-04-22 04:48:00,39.9,33.0,30.28,SSW,197,1.0,4.0,77,0.00,,,0.00,weatherlink.com 1.10,2013-04-22 09:48:00,
2013-04-22 05:03:00,39.9,33.0,30.27,ESE,117,0.0,5.0,77,0.00,,,0.00,weatherlink.com 1.10,2013-04-22 10:03:00,
2013-04-22 05:17:00,40.0,33.0,30.27,South,186,2.0,5.0,77,0.00,,,0.00,weatherlink.com 1.10,2013-04-22 10:17:00,
2013-04-22 05:32:00,39.7,33.0,30.27,SSW,195,2.0,4.0,78,0.00,,,0.00,weatherlink.com 1.10,2013-04-22 10:32:00,
2013-04-22 05:46:00,39.6,33.0,30.27,SW,235,1.0,8.0,78,0.00,,,0.00,weatherlink.com 1.10,2013-04-22 10:46:00,
2013-04-22 06:01:00,39.6,33.0,30.27,SSW,207,2.0,5.0,78,0.00,,,0.00,weatherlink.com 1.10,2013-04-22 11:01:00,
2013-04-22 06:15:00,39.5,33.0,30.27,South,191,3.0,4.0,78,0.00,,,0.00,weatherlink.com 1.10,2013-04-22 11:15:00,
2013-04-22 06:29:00,39.5,33.0,30.27,South,178,1.0,3.0,78,0.00,,,0.00,weatherlink.com 1.10,2013-04-22 11:29:00,
2013-04-22 06:44:00,39.4,33.0,30.27,SSW,213,0.0,2.0,79,0.00,,,0.00,weatherlink.com 1.10,2013-04-22 11:44:00,
2013-04-22 06:58:00,39.9,34.0,30.27,SSW,202,1.0,6.0,78,0.00,,,0.00,weatherlink.com 1.10,2013-04-22 11:58:00,
2013-04-22 07:12:00,40.9,34.0,30.27,SSW,205,3.0,4.0,77,0.00,,,0.00,weatherlink.com 1.10,2013-04-22 12:12:00,
2013-04-22 07:27:00,42.2,35.0,30.27,SW,234,1.0,5.0,75,0.00,,,0.00,weatherlink.com 1.10,2013-04-22 12:27:00,
2013-04-22 07:41:00,43.6,35.0,30.26,South,191,4.0,5.0,72,0.00,,,0.00,weatherlink.com 1.10,2013-04-22 12:41:00,
2013-04-22 07:55:00,44.8,36.0,30.26,SSW,210,4.0,6.0,70,0.00,,,0.00,weatherlink.com 1.10,2013-04-22 12:55:00,
2013-04-22 08:10:00,45.9,36.0,30.26,SSE,148,5.0,8.0,67,0.00,,,0.00,weatherlink.com 1.10,2013-04-22 13:10:00,
2013-04-22 08:24:00,46.9,37.0,30.26,South,191,4.0,8.0,67,0.00,,,0.00,weatherlink.com 1.10,2013-04-22 13:24:00,
2013-04-22 08:39:00,48.5,36.0,30.26,South,188,2.0,7.0,63,0.00,,,0.00,weatherlink.com 1.10,2013-04-22 13:39:00,
2013-04-22 08:53:00,49.4,37.0,30.25,SSW,198,4.0,8.0,61,0.00,,,0.00,weatherlink.com 1.10,2013-04-22 13:53:00,
2013-04-22 09:08:00,50.4,37.0,30.26,SSW,202,3.0,12.0,60,0.00,,,0.00,weatherlink.com 1.10,2013-04-22 14:08:00,
2013-04-22 09:22:00,51.9,38.0,30.26,SW,220,6.0,11.0,58,0.00,,,0.00,weatherlink.com 1.10,2013-04-22 14:22:00,
2013-04-22 09:37:00,52.7,38.0,30.26,SSW,203,5.0,9.0,58,0.00,,,0.00,weatherlink.com 1.10,2013-04-22 14:37:00,
2013-04-22 09:51:00,53.0,38.0,30.25,South,177,5.0,10.0,57,0.00,,,0.00,weatherlink.com 1.10,2013-04-22 14:51:00,
2013-04-22 10:05:00,54.1,38.0,30.26,South,189,6.0,12.0,54,0.00,,,0.00,weatherlink.com 1.10,2013-04-22 15:05:00,
2013-04-22 10:20:00,55.3,39.0,30.25,SSW,192,5.0,11.0,54,0.00,,,0.00,weatherlink.com 1.10,2013-04-22 15:20:00,
2013-04-22 10:34:00,56.4,38.0,30.25,SSW,202,7.0,11.0,51,0.00,,,0.00,weatherlink.com 1.10,2013-04-22 15:34:00,
2013-04-22 10:49:00,57.0,40.0,30.25,South,181,8.0,11.0,52,0.00,,,0.00,weatherlink.com 1.10,2013-04-22 15:49:00,
2013-04-22 11:03:00,57.8,40.0,30.24,WNW,300,1.0,10.0,51,0.00,,,0.00,weatherlink.com 1.10,2013-04-22 16:03:00,
2013-04-22 11:17:00,58.4,41.0,30.24,SSW,209,5.0,11.0,52,0.00,,,0.00,weatherlink.com 1.10,2013-04-22 16:17:00,
2013-04-22 11:32:00,58.8,40.0,30.23,SSW,204,5.0,10.0,50,0.00,,,0.00,weatherlink.com 1.10,2013-04-22 16:32:00,
2013-04-22 11:46:00,59.1,41.0,30.23,SSW,202,4.0,10.0,51,0.00,,,0.00,weatherlink.com 1.10,2013-04-22 16:46:00,
2013-04-22 12:01:00,60.6,41.0,30.24,SSW,210,3.0,9.0,48,0.00,,,0.00,weatherlink.com 1.10,2013-04-22 17:01:00,
2013-04-22 12:15:00,61.3,43.0,30.23,SSW,193,4.0,7.0,51,0.00,,,0.00,weatherlink.com 1.10,2013-04-22 17:15:00,
2013-04-22 12:30:00,62.4,43.0,30.22,ESE,108,6.0,8.0,49,0.00,,,0.00,weatherlink.com 1.10,2013-04-22 17:30:00,
2013-04-22 12:44:00,62.9,41.0,30.21,SW,222,5.0,9.0,44,0.00,,,0.00,weatherlink.com 1.10,2013-04-22 17:44:00,
2013-04-22 12:58:00,63.0,41.0,30.20,SSW,202,7.0,11.0,44,0.00,,,0.00,weatherlink.com 1.10,2013-04-22 17:58:00,
2013-04-22 13:13:00,62.9,40.0,30.19,SE,128,3.0,9.0,43,0.00,,,0.00,weatherlink.com 1.10,2013-04-22 18:13:00,
2013-04-22 13:27:00,64.0,41.0,30.18,SW,217,8.0,11.0,43,0.00,,,0.00,weatherlink.com 1.10,2013-04-22 18:27:00,
2013-04-22 13:42:00,64.7,42.0,30.17,ESE,117,3.0,8.0,44,0.00,,,0.00,weatherlink.com 1.10,2013-04-22 18:42:00,
2013-04-22 13:56:00,65.9,41.0,30.16,SSE,163,1.0,11.0,40,0.00,,,0.00,weatherlink.com 1.10,2013-04-22 18:56:00,
2013-04-22 14:11:00,65.3,42.0,30.15,SSW,197,8.0,11.0,42,0.00,,,0.00,weatherlink.com 1.10,2013-04-22 19:11:00,
2013-04-22 14:25:00,65.8,42.0,30.15,SW,230,7.0,9.0,42,0.00,,,0.00,weatherlink.com 1.10,2013-04-22 19:25:00,
2013-04-22 14:40:00,66.2,40.0,30.14,SSW,199,10.0,10.0,39,0.00,,,0.00,weatherlink.com 1.10,2013-04-22 19:40:00,
2013-04-22 14:54:00,66.4,41.0,30.13,South,176,5.0,13.0,39,0.00,,,0.00,weatherlink.com 1.10,2013-04-22 19:54:00,
2013-04-22 15:09:00,65.7,40.0,30.12,SSW,192,4.0,10.0,39,0.00,,,0.00,weatherlink.com 1.10,2013-04-22 20:09:00,
2013-04-22 15:23:00,65.7,41.0,30.12,SW,226,12.0,12.0,41,0.00,,,0.00,weatherlink.com 1.10,2013-04-22 20:23:00,
2013-04-22 15:37:00,65.9,41.0,30.11,North,349,0.0,15.0,40,0.00,,,0.00,weatherlink.com 1.10,2013-04-22 20:37:00,
2013-04-22 15:52:00,66.7,42.0,30.09,South,178,4.0,10.0,40,0.00,,,0.00,weatherlink.com 1.10,2013-04-22 20:52:00,
2013-04-22 16:06:00,66.9,41.0,30.09,SSW,206,7.0,8.0,39,0.00,,,0.00,weatherlink.com 1.10,2013-04-22 21:06:00,
2013-04-22 16:21:00,67.7,42.0,30.09,SSW,207,4.0,9.0,39,0.00,,,0.00,weatherlink.com 1.10,2013-04-22 21:21:00,
2013-04-22 16:35:00,66.9,41.0,30.08,South,178,5.0,13.0,39,0.00,,,0.00,weatherlink.com 1.10,2013-04-22 21:35:00,
2013-04-22 16:50:00,66.7,41.0,30.07,West,280,2.0,10.0,39,0.00,,,0.00,weatherlink.com 1.10,2013-04-22 21:50:00,
2013-04-22 17:04:00,66.5,41.0,30.06,West,263,4.0,10.0,39,0.00,,,0.00,weatherlink.com 1.10,2013-04-22 22:04:00,
2013-04-22 17:18:00,65.8,41.0,30.06,SSW,210,6.0,9.0,40,0.00,,,0.00,weatherlink.com 1.10,2013-04-22 22:18:00,
2013-04-22 17:33:00,65.5,41.0,30.05,NNW,339,2.0,12.0,41,0.00,,,0.00,weatherlink.com 1.10,2013-04-22 22:33:00,
2013-04-22 17:47:00,65.0,40.0,30.05,South,181,6.0,12.0,40,0.00,,,0.00,weatherlink.com 1.10,2013-04-22 22:47:00,
2013-04-22 18:02:00,64.5,40.0,30.06,South,179,4.0,9.0,40,0.00,,,0.00,weatherlink.com 1.10,2013-04-22 23:02:00,
2013-04-22 18:16:00,63.3,40.0,30.05,SSW,200,4.0,10.0,42,0.00,,,0.00,weatherlink.com 1.10,2013-04-22 23:16:00,
2013-04-22 18:30:00,63.4,40.0,30.05,South,188,1.0,12.0,43,0.00,,,0.00,weatherlink.com 1.10,2013-04-22 23:30:00,
2013-04-22 18:45:00,62.5,41.0,30.05,SSE,161,5.0,8.0,45,0.00,,,0.00,weatherlink.com 1.10,2013-04-22 23:45:00,
2013-04-22 18:59:00,61.9,40.0,30.05,SSW,193,6.0,9.0,45,0.00,,,0.00,weatherlink.com 1.10,2013-04-22 23:59:00,
2013-04-22 19:13:00,61.2,40.0,30.05,SSW,209,3.0,8.0,46,0.00,,,0.00,weatherlink.com 1.10,2013-04-23 00:13:00,
2013-04-22 19:28:00,60.5,41.0,30.04,SSW,199,1.0,6.0,48,0.00,,,0.00,weatherlink.com 1.10,2013-04-23 00:28:00,
2013-04-22 19:42:00,59.6,40.0,30.05,South,189,0.0,5.0,49,0.00,,,0.00,weatherlink.com 1.10,2013-04-23 00:42:00,
2013-04-22 19:57:00,58.5,40.0,30.05,SSW,212,0.0,3.0,51,0.00,,,0.00,weatherlink.com 1.10,2013-04-23 00:57:00,
2013-04-22 20:11:00,57.4,41.0,30.05,SW,218,1.0,2.0,54,0.00,,,0.00,weatherlink.com 1.10,2013-04-23 01:11:00,
2013-04-22 20:25:00,56.6,41.0,30.05,SSW,205,1.0,2.0,56,0.00,,,0.00,weatherlink.com 1.10,2013-04-23 01:25:00,
2013-04-22 20:40:00,56.3,41.0,30.05,SW,216,0.0,3.0,57,0.00,,,0.00,weatherlink.com 1.10,2013-04-23 01:40:00,
2013-04-22 20:54:00,55.8,41.0,30.05,South,184,0.0,3.0,58,0.00,,,0.00,weatherlink.com 1.10,2013-04-23 01:54:00,
2013-04-22 21:09:00,55.9,42.0,30.05,South,174,0.0,4.0,59,0.00,,,0.00,weatherlink.com 1.10,2013-04-23 02:09:00,
2013-04-22 21:23:00,55.6,41.0,30.05,South,181,0.0,3.0,59,0.00,,,0.00,weatherlink.com 1.10,2013-04-23 02:23:00,
2013-04-22 21:38:00,55.4,41.0,30.05,SSE,159,2.0,6.0,59,0.00,,,0.00,weatherlink.com 1.10,2013-04-23 02:38:00,
2013-04-22 21:52:00,55.2,42.0,30.05,SSW,207,0.0,5.0,60,0.00,,,0.00,weatherlink.com 1.10,2013-04-23 02:52:00,
2013-04-22 22:06:00,54.9,42.0,30.05,South,181,0.0,3.0,61,0.00,,,0.00,weatherlink.com 1.10,2013-04-23 03:06:00,
2013-04-22 22:21:00,54.7,42.0,30.05,SSW,207,0.0,3.0,61,0.00,,,0.00,weatherlink.com 1.10,2013-04-23 03:21:00,
2013-04-22 22:35:00,54.3,42.0,30.05,SSW,202,0.0,4.0,62,0.00,,,0.00,weatherlink.com 1.10,2013-04-23 03:35:00,
2013-04-22 22:49:00,53.8,41.0,30.04,SSE,161,0.0,1.0,62,0.00,,,0.00,weatherlink.com 1.10,2013-04-23 03:49:00,
2013-04-22 23:04:00,53.6,41.0,30.03,South,177,0.0,2.0,63,0.00,,,0.00,weatherlink.com 1.10,2013-04-23 04:04:00,
2013-04-22 23:18:00,53.3,41.0,30.03,SSW,212,0.0,2.0,63,0.00,,,0.00,weatherlink.com 1.10,2013-04-23 04:18:00,
2013-04-22 23:33:00,53.4,42.0,30.03,SSW,205,0.0,2.0,64,0.00,,,0.00,weatherlink.com 1.10,2013-04-23 04:33:00,
2013-04-22 23:47:00,53.7,41.0,30.03,SSW,210,1.0,3.0,63,0.00,,,0.00,weatherlink.com 1.10,2013-04-23 04:47:00,